createdAt,value
2022-11-20T00:01:26.423Z,22.45
2022-11-20T00:03:53.684Z,22.43
2022-11-20T00:06:20.578Z,22.43
2022-11-20T00:08:47.186Z,22.43
2022-11-20T00:11:20.914Z,22.42
2022-11-20T00:13:49.084Z,22.43
2022-11-20T00:16:16.962Z,22.43
2022-11-20T00:18:43.598Z,22.42
2022-11-20T00:21:14.949Z,22.43
2022-11-20T00:23:41.985Z,22.43
2022-11-20T00:26:13.017Z,22.43
2022-11-20T00:28:39.640Z,22.43
2022-11-20T00:31:15.513Z,22.43
2022-11-20T00:33:42.834Z,22.44
2022-11-20T00:36:13.986Z,22.43
2022-11-20T00:38:40.646Z,22.43
2022-11-20T00:41:08.815Z,22.44
2022-11-20T00:43:36.037Z,22.44
2022-11-20T00:46:04.417Z,22.43
2022-11-20T00:48:31.076Z,22.43
2022-11-20T00:50:57.687Z,22.43
2022-11-20T00:53:24.332Z,22.44
2022-11-20T00:56:01.342Z,22.43
2022-11-20T00:58:32.790Z,22.43
2022-11-20T01:01:06.496Z,22.44
2022-11-20T01:03:33.828Z,22.43
2022-11-20T01:06:11.391Z,22.42
2022-11-20T01:08:38.027Z,22.43
2022-11-20T01:11:09.105Z,22.43
2022-11-20T01:13:35.922Z,22.42
2022-11-20T01:16:11.368Z,22.43
2022-11-20T01:18:38.992Z,22.43
2022-11-20T01:21:06.994Z,22.42
2022-11-20T01:23:34.763Z,22.42
2022-11-20T01:26:02.575Z,22.42
2022-11-20T01:28:29.526Z,22.42
2022-11-20T01:30:56.142Z,22.42
2022-11-20T01:33:22.753Z,22.42
2022-11-20T01:35:49.365Z,22.42
2022-11-20T01:38:16.690Z,22.41
2022-11-20T01:40:43.420Z,22.41
2022-11-20T01:43:19.206Z,22.42
2022-11-20T01:45:58.093Z,22.41
2022-11-20T01:48:25.240Z,22.41
2022-11-20T01:50:52.484Z,22.41
2022-11-20T01:53:19.753Z,22.41
2022-11-20T01:55:51.249Z,22.41
2022-11-20T01:58:18.160Z,22.41
2022-11-20T02:00:44.792Z,22.41
2022-11-20T02:03:14.717Z,22.41
2022-11-20T02:05:45.596Z,22.41
2022-11-20T02:08:12.236Z,22.41
2022-11-20T02:10:38.843Z,22.41
2022-11-20T02:13:05.511Z,22.42
2022-11-20T02:15:33.481Z,22.42
2022-11-20T02:18:00.089Z,22.42
2022-11-20T02:20:26.755Z,22.42
2022-11-20T02:23:23.665Z,22.42
2022-11-20T02:25:50.273Z,22.42
2022-11-20T02:28:17.335Z,22.40
2022-11-20T02:30:43.934Z,22.41
2022-11-20T02:33:10.560Z,22.41
2022-11-20T02:35:41.673Z,22.40
2022-11-20T02:38:08.287Z,22.41
2022-11-20T02:40:34.932Z,22.41
2022-11-20T02:43:01.524Z,22.41
2022-11-20T02:45:28.125Z,22.41
2022-11-20T02:47:54.741Z,22.41
2022-11-20T02:50:21.359Z,22.41
2022-11-20T02:52:47.967Z,22.41
2022-11-20T02:55:14.575Z,22.42
2022-11-20T02:57:41.186Z,22.42
2022-11-20T03:00:08.304Z,22.42
2022-11-20T03:02:34.915Z,22.41
2022-11-20T03:05:01.521Z,22.41
2022-11-20T03:07:28.169Z,22.41
2022-11-20T03:09:54.837Z,22.41
2022-11-20T03:12:21.450Z,22.40
2022-11-20T03:14:52.810Z,22.40
2022-11-20T03:17:19.976Z,22.40
2022-11-20T03:19:46.590Z,22.40
2022-11-20T03:22:13.226Z,22.41
2022-11-20T03:24:39.855Z,22.40
2022-11-20T03:27:06.454Z,22.40
2022-11-20T03:29:33.058Z,22.40
2022-11-20T03:31:59.719Z,22.40
2022-11-20T03:34:26.338Z,22.40
2022-11-20T03:36:52.935Z,22.40
2022-11-20T03:39:19.926Z,22.40
2022-11-20T03:41:46.766Z,22.40
2022-11-20T03:44:13.368Z,22.40
2022-11-20T03:46:40.013Z,22.39
2022-11-20T03:49:06.622Z,22.40
2022-11-20T03:51:34.453Z,22.40
2022-11-20T03:54:03.371Z,22.40
2022-11-20T03:56:31.029Z,22.39
2022-11-20T03:58:57.845Z,22.39
2022-11-20T04:01:28.938Z,22.39
2022-11-20T04:03:55.992Z,22.40
2022-11-20T04:06:27.017Z,22.40
2022-11-20T04:08:55.612Z,22.40
2022-11-20T04:11:24.036Z,22.40
2022-11-20T04:13:55.161Z,22.40
2022-11-20T04:16:22.204Z,22.41
2022-11-20T04:18:52.717Z,22.40
2022-11-20T04:21:19.333Z,22.41
2022-11-20T04:23:45.921Z,22.40
2022-11-20T04:26:12.633Z,22.39
2022-11-20T04:28:39.494Z,22.39
2022-11-20T04:31:11.471Z,22.40
2022-11-20T04:33:38.212Z,22.40
2022-11-20T04:36:09.135Z,22.39
2022-11-20T04:38:35.755Z,22.40
2022-11-20T04:41:05.153Z,22.39
2022-11-20T04:43:31.886Z,22.40
2022-11-20T04:45:58.546Z,22.40
2022-11-20T04:48:25.529Z,22.40
2022-11-20T04:50:52.341Z,22.39
2022-11-20T04:53:18.989Z,22.39
2022-11-20T04:55:45.711Z,22.39
2022-11-20T04:58:12.657Z,22.39
2022-11-20T05:00:39.279Z,22.39
2022-11-20T05:03:05.957Z,22.38
2022-11-20T05:05:32.576Z,22.38
2022-11-20T05:07:59.386Z,22.38
2022-11-20T05:10:26.542Z,22.39
2022-11-20T05:12:53.142Z,22.39
2022-11-20T05:15:19.939Z,22.38
2022-11-20T05:17:49.977Z,22.37
2022-11-20T05:20:16.805Z,22.37
2022-11-20T05:22:43.537Z,22.36
2022-11-20T05:25:10.361Z,22.37
2022-11-20T05:27:37.009Z,22.37
2022-11-20T05:30:04.801Z,22.37
2022-11-20T05:32:31.406Z,22.37
2022-11-20T05:34:58.039Z,22.36
2022-11-20T05:37:24.642Z,22.37
2022-11-20T05:39:51.244Z,22.36
2022-11-20T05:42:17.853Z,22.37
2022-11-20T05:44:44.465Z,22.36
2022-11-20T05:47:11.075Z,22.36
2022-11-20T05:49:37.679Z,22.36
2022-11-20T05:52:04.400Z,22.35
2022-11-20T05:54:31.006Z,22.36
2022-11-20T05:56:57.615Z,22.35
2022-11-20T05:59:24.254Z,22.35
2022-11-20T06:01:50.973Z,22.35
2022-11-20T06:04:17.577Z,22.35
2022-11-20T06:06:44.174Z,22.35
2022-11-20T06:09:10.793Z,22.36
2022-11-20T06:11:37.403Z,22.35
2022-11-20T06:14:04.013Z,22.34
2022-11-20T06:16:30.625Z,22.34
2022-11-20T06:18:57.221Z,22.34
2022-11-20T06:21:23.874Z,22.34
2022-11-20T06:23:50.874Z,22.35
2022-11-20T06:26:19.191Z,22.34
2022-11-20T06:28:45.926Z,22.34
2022-11-20T06:31:13.891Z,22.34
2022-11-20T06:33:40.857Z,22.35
2022-11-20T06:36:10.932Z,22.35
2022-11-20T06:38:38.838Z,22.35
2022-11-20T06:41:06.611Z,22.34
2022-11-20T06:43:33.208Z,22.34
2022-11-20T06:45:59.828Z,22.33
2022-11-20T06:48:27.165Z,22.33
2022-11-20T06:50:53.789Z,22.32
2022-11-20T06:53:20.393Z,22.33
2022-11-20T06:55:47.441Z,22.32
2022-11-20T06:58:14.585Z,22.32
2022-11-20T07:00:41.286Z,22.31
2022-11-20T07:03:08.736Z,22.32
2022-11-20T07:05:35.681Z,22.31
2022-11-20T07:08:02.651Z,22.32
2022-11-20T07:10:29.352Z,22.31
2022-11-20T07:12:56.029Z,22.31
2022-11-20T07:15:23.522Z,22.31
2022-11-20T07:17:50.233Z,22.32
2022-11-20T07:20:16.862Z,22.32
2022-11-20T07:22:43.516Z,22.31
2022-11-20T07:25:10.236Z,22.31
2022-11-20T07:27:36.978Z,22.31
2022-11-20T07:30:04.343Z,22.31
2022-11-20T07:32:30.953Z,22.31
2022-11-20T07:34:57.554Z,22.31
2022-11-20T07:37:24.155Z,22.31
2022-11-20T07:39:50.747Z,22.31
2022-11-20T07:42:17.372Z,22.32
2022-11-20T07:44:43.967Z,22.32
2022-11-20T07:47:10.572Z,22.32
2022-11-20T07:49:37.269Z,22.32
2022-11-20T07:52:05.318Z,22.32
2022-11-20T07:54:32.528Z,22.32
2022-11-20T07:56:59.146Z,22.33
2022-11-20T07:59:25.766Z,22.32
2022-11-20T08:01:52.352Z,22.33
2022-11-20T08:04:18.967Z,22.33
2022-11-20T08:06:45.569Z,22.33
2022-11-20T08:09:12.181Z,22.34
2022-11-20T08:11:38.817Z,22.34
2022-11-20T08:14:05.414Z,22.36
2022-11-20T08:16:32.030Z,22.36
2022-11-20T08:18:58.642Z,22.37
2022-11-20T08:21:25.243Z,22.38
2022-11-20T08:23:51.884Z,22.39
2022-11-20T08:26:18.497Z,22.39
2022-11-20T08:28:45.219Z,22.41
2022-11-20T08:31:11.841Z,22.42
2022-11-20T08:33:38.465Z,22.43
2022-11-20T08:36:05.935Z,22.44
2022-11-20T08:38:32.662Z,22.46
2022-11-20T08:41:00.177Z,22.47
2022-11-20T08:43:26.781Z,22.47
2022-11-20T08:45:53.397Z,22.48
2022-11-20T08:48:19.993Z,22.52
2022-11-20T08:50:46.617Z,22.53
2022-11-20T08:53:13.341Z,22.55
2022-11-20T08:55:39.953Z,22.56
2022-11-20T08:58:09.813Z,22.59
2022-11-20T09:00:36.465Z,22.62
2022-11-20T09:03:03.104Z,22.65
2022-11-20T09:05:29.835Z,22.68
2022-11-20T09:07:59.475Z,22.73
2022-11-20T09:10:29.139Z,22.76
2022-11-20T09:12:55.813Z,22.80
2022-11-20T09:15:22.449Z,22.84
2022-11-20T09:17:56.387Z,22.86
2022-11-20T09:20:23.011Z,22.87
2022-11-20T09:22:49.611Z,22.87
2022-11-20T09:25:16.296Z,22.91
2022-11-20T09:27:42.913Z,22.94
2022-11-20T09:30:09.852Z,22.98
2022-11-20T09:32:36.668Z,22.98
2022-11-20T09:35:03.311Z,23.01
2022-11-20T09:37:29.929Z,23.04
2022-11-20T09:39:56.531Z,23.06
2022-11-20T09:42:25.674Z,23.09
2022-11-20T09:45:01.167Z,23.09
2022-11-20T09:47:57.641Z,23.10
2022-11-20T09:50:30.280Z,23.13
2022-11-20T09:53:09.468Z,23.16
2022-11-20T09:55:36.206Z,23.19
2022-11-20T09:58:02.806Z,23.20
2022-11-20T10:00:29.419Z,23.22
2022-11-20T10:03:07.252Z,23.24
2022-11-20T10:05:43.422Z,23.26
2022-11-20T10:08:26.149Z,23.28
2022-11-20T10:11:07.231Z,23.28
2022-11-20T10:14:29.284Z,23.30
2022-11-20T10:17:32.896Z,23.32
2022-11-20T10:20:23.104Z,23.29
2022-11-20T10:23:25.811Z,23.27
2022-11-20T10:26:14.068Z,23.25
2022-11-20T10:29:02.411Z,23.26
2022-11-20T10:31:34.502Z,23.26
2022-11-20T10:34:12.132Z,23.25
2022-11-20T10:36:47.606Z,23.26
2022-11-20T10:39:34.994Z,23.26
2022-11-20T10:42:01.612Z,23.27
2022-11-20T10:44:29.201Z,23.28
2022-11-20T10:46:55.817Z,23.28
2022-11-20T10:49:22.698Z,23.28
2022-11-20T10:52:05.804Z,23.28
2022-11-20T10:54:52.835Z,23.29
2022-11-20T10:57:47.055Z,23.29
2022-11-20T11:00:13.947Z,23.29
2022-11-20T11:02:46.428Z,23.29
2022-11-20T11:05:26.285Z,23.30
2022-11-20T11:07:55.297Z,23.31
2022-11-20T11:10:32.197Z,23.31
2022-11-20T11:12:58.795Z,23.31
2022-11-20T11:15:37.212Z,23.31
2022-11-20T11:18:04.293Z,23.32
2022-11-20T11:20:30.921Z,23.33
2022-11-20T11:22:58.776Z,23.33
2022-11-20T11:25:28.184Z,23.34
2022-11-20T11:27:55.718Z,23.35
2022-11-20T11:30:22.744Z,23.35
2022-11-20T11:32:49.380Z,23.36
2022-11-20T11:35:28.407Z,23.37
2022-11-20T11:38:03.070Z,23.36
2022-11-20T11:40:29.692Z,23.35
2022-11-20T11:42:58.828Z,23.35
2022-11-20T11:45:25.458Z,23.37
2022-11-20T11:47:52.085Z,23.36
2022-11-20T11:50:20.959Z,23.38
2022-11-20T11:53:05.398Z,23.37
2022-11-20T11:56:08.440Z,23.36
2022-11-20T11:58:41.030Z,23.36
2022-11-20T12:01:49.820Z,23.37
2022-11-20T12:04:38.589Z,23.37
2022-11-20T12:07:46.121Z,23.36
2022-11-20T12:10:22.882Z,23.36
2022-11-20T12:12:52.853Z,23.35
2022-11-20T12:15:32.791Z,23.36
2022-11-20T12:17:59.409Z,23.36
2022-11-20T12:20:29.685Z,23.37
2022-11-20T12:23:14.766Z,23.37
2022-11-20T12:25:41.366Z,23.38
2022-11-20T12:28:29.577Z,23.37
2022-11-20T12:31:06.194Z,23.36
2022-11-20T12:34:17.989Z,23.36
2022-11-20T12:37:01.865Z,23.36
2022-11-20T12:39:33.593Z,23.35
2022-11-20T12:42:15.862Z,23.36
2022-11-20T12:44:54.468Z,23.35
2022-11-20T12:47:48.373Z,23.35
2022-11-20T12:50:42.933Z,23.33
2022-11-20T12:53:40.013Z,23.33
2022-11-20T12:56:25.330Z,23.33
2022-11-20T12:59:07.117Z,23.33
2022-11-20T13:01:49.095Z,23.32
2022-11-20T13:04:37.512Z,23.32
2022-11-20T13:07:06.427Z,23.32
2022-11-20T13:09:33.477Z,23.31
2022-11-20T13:12:23.909Z,23.31
2022-11-20T13:14:59.550Z,23.30
2022-11-20T13:17:36.993Z,23.30
2022-11-20T13:20:03.617Z,23.29
2022-11-20T13:22:51.269Z,23.28
2022-11-20T13:25:32.975Z,23.28
2022-11-20T13:28:20.177Z,23.26
2022-11-20T13:30:50.525Z,23.25
2022-11-20T13:33:36.627Z,23.23
2022-11-20T13:36:04.653Z,23.23
2022-11-20T13:38:44.245Z,23.22
2022-11-20T13:41:10.851Z,23.22
2022-11-20T13:43:43.400Z,23.20
2022-11-20T13:46:10.322Z,23.20
2022-11-20T13:48:41.187Z,23.20
2022-11-20T13:51:18.611Z,23.19
2022-11-20T13:54:06.745Z,23.19
2022-11-20T13:56:54.508Z,23.18
2022-11-20T13:59:48.030Z,23.16
2022-11-20T14:02:17.822Z,23.17
2022-11-20T14:04:49.306Z,23.15
2022-11-20T14:07:19.787Z,23.15
2022-11-20T14:09:56.514Z,23.14
2022-11-20T14:12:25.014Z,23.13
2022-11-20T14:14:53.043Z,23.13
2022-11-20T14:17:24.267Z,23.12
2022-11-20T14:19:51.604Z,23.13
2022-11-20T14:22:22.826Z,23.12
2022-11-20T14:24:49.954Z,23.13
2022-11-20T14:27:20.632Z,23.11
2022-11-20T14:29:48.041Z,23.09
2022-11-20T14:32:22.585Z,23.07
2022-11-20T14:34:50.022Z,23.07
2022-11-20T14:37:22.573Z,23.05
2022-11-20T14:39:58.122Z,23.05
2022-11-20T14:42:26.098Z,23.04
2022-11-20T14:44:55.229Z,23.03
2022-11-20T14:47:39.963Z,23.03
2022-11-20T14:50:13.599Z,23.04
2022-11-20T14:52:40.238Z,23.04
2022-11-20T14:55:08.556Z,23.02
2022-11-20T14:57:36.414Z,23.01
2022-11-20T15:00:15.248Z,23.00
2022-11-20T15:02:46.272Z,22.99
2022-11-20T15:05:12.976Z,22.98
2022-11-20T15:07:41.334Z,22.97
2022-11-20T15:10:09.493Z,22.98
2022-11-20T15:12:38.430Z,22.98
2022-11-20T15:15:05.432Z,22.97
2022-11-20T15:17:32.627Z,22.96
2022-11-20T15:20:00.718Z,22.96
2022-11-20T15:22:27.347Z,22.95
2022-11-20T15:24:53.969Z,22.94
2022-11-20T15:27:20.573Z,22.94
2022-11-20T15:29:47.171Z,22.93
2022-11-20T15:32:13.952Z,22.92
2022-11-20T15:34:40.618Z,22.91
2022-11-20T15:37:07.227Z,22.91
2022-11-20T15:39:33.846Z,22.90
2022-11-20T15:42:00.437Z,22.89
2022-11-20T15:44:27.051Z,22.90
2022-11-20T15:46:53.651Z,22.90
2022-11-20T15:49:20.249Z,22.89
2022-11-20T15:51:48.672Z,22.89
2022-11-20T15:54:19.087Z,22.87
2022-11-20T15:56:45.683Z,22.87
2022-11-20T15:59:12.297Z,22.86
2022-11-20T16:01:38.935Z,22.87
2022-11-20T16:04:06.470Z,22.85
2022-11-20T16:06:33.078Z,22.84
2022-11-20T16:08:59.701Z,22.84
2022-11-20T16:11:26.304Z,22.84
2022-11-20T16:13:52.896Z,22.84
2022-11-20T16:16:23.821Z,22.84
2022-11-20T16:18:50.660Z,22.84
2022-11-20T16:21:17.270Z,22.82
2022-11-20T16:23:43.900Z,22.83
2022-11-20T16:26:11.718Z,22.83
2022-11-20T16:28:38.338Z,22.82
2022-11-20T16:31:17.652Z,22.81
2022-11-20T16:33:44.253Z,22.81
2022-11-20T16:36:14.563Z,22.81
2022-11-20T16:38:42.129Z,22.82
2022-11-20T16:41:08.922Z,22.82
2022-11-20T16:43:35.526Z,22.81
2022-11-20T16:46:02.324Z,22.80
2022-11-20T16:48:28.929Z,22.79
2022-11-20T16:50:55.525Z,22.80
2022-11-20T16:53:22.386Z,22.80
2022-11-20T16:55:49.001Z,22.80
2022-11-20T16:58:15.801Z,22.78
2022-11-20T17:00:46.902Z,22.78
2022-11-20T17:03:16.825Z,22.79
2022-11-20T17:05:43.453Z,22.79
2022-11-20T17:08:10.088Z,22.79
2022-11-20T17:10:36.857Z,22.77
2022-11-20T17:13:03.475Z,22.76
2022-11-20T17:15:30.083Z,22.76
2022-11-20T17:17:56.685Z,22.76
2022-11-20T17:20:23.288Z,22.75
2022-11-20T17:22:49.916Z,22.74
2022-11-20T17:25:16.521Z,22.75
2022-11-20T17:27:43.117Z,22.76
2022-11-20T17:30:09.782Z,22.74
2022-11-20T17:32:36.376Z,22.75
2022-11-20T17:35:02.972Z,22.74
2022-11-20T17:37:29.595Z,22.73
2022-11-20T17:39:56.272Z,22.73
2022-11-20T17:42:22.878Z,22.72
2022-11-20T17:44:49.496Z,22.72
2022-11-20T17:47:16.101Z,22.71
2022-11-20T17:49:42.727Z,22.70
2022-11-20T17:52:09.353Z,22.70
2022-11-20T17:54:35.993Z,22.70
2022-11-20T17:57:02.622Z,22.71
2022-11-20T17:59:29.216Z,22.70
2022-11-20T18:01:59.644Z,22.69
2022-11-20T18:04:28.874Z,22.70
2022-11-20T18:06:55.521Z,22.71
2022-11-20T18:09:22.139Z,22.72
2022-11-20T18:11:48.742Z,22.73
2022-11-20T18:14:16.310Z,22.74
2022-11-20T18:16:47.522Z,22.76
2022-11-20T18:19:16.788Z,22.78
2022-11-20T18:21:43.409Z,22.80
2022-11-20T18:24:10.040Z,22.82
2022-11-20T18:26:42.787Z,22.83
2022-11-20T18:29:11.045Z,22.83
2022-11-20T18:31:37.694Z,22.84
2022-11-20T18:34:04.949Z,22.84
2022-11-20T18:36:31.579Z,22.87
2022-11-20T18:38:58.769Z,22.89
2022-11-20T18:41:26.833Z,22.89
2022-11-20T18:43:53.513Z,22.85
2022-11-20T18:46:20.207Z,22.83
2022-11-20T18:48:46.878Z,22.84
2022-11-20T18:51:13.516Z,22.86
2022-11-20T18:53:45.868Z,22.84
2022-11-20T18:56:13.854Z,22.85
2022-11-20T18:58:41.120Z,22.90
2022-11-20T19:01:07.883Z,22.91
2022-11-20T19:03:34.695Z,22.93
2022-11-20T19:06:01.311Z,22.96
2022-11-20T19:08:27.971Z,22.99
2022-11-20T19:10:54.605Z,22.99
2022-11-20T19:13:21.265Z,23.01
2022-11-20T19:15:47.946Z,22.99
2022-11-20T19:18:14.555Z,23.00
2022-11-20T19:20:41.153Z,23.01
2022-11-20T19:23:07.791Z,23.00
2022-11-20T19:25:38.089Z,23.02
2022-11-20T19:28:05.246Z,23.02
2022-11-20T19:30:32.741Z,22.98
2022-11-20T19:32:59.354Z,22.96
2022-11-20T19:35:25.992Z,22.96
2022-11-20T19:37:52.607Z,23.00
2022-11-20T19:40:19.207Z,23.02
2022-11-20T19:42:45.845Z,23.06
2022-11-20T19:45:12.476Z,23.05
2022-11-20T19:48:06.831Z,23.05
2022-11-20T19:50:25.677Z,23.06
2022-11-20T19:52:57.379Z,23.05
2022-11-20T19:55:25.439Z,23.04
2022-11-20T19:57:52.190Z,23.04
2022-11-20T20:00:26.673Z,23.05
2022-11-20T20:02:57.669Z,23.03
2022-11-20T20:05:24.357Z,23.01
2022-11-20T20:07:50.968Z,23.00
2022-11-20T20:10:17.585Z,22.99
2022-11-20T20:12:44.230Z,23.00
2022-11-20T20:15:10.854Z,22.99
2022-11-20T20:17:37.538Z,23.00
2022-11-20T20:20:04.473Z,22.98
2022-11-20T20:22:31.105Z,22.97
2022-11-20T20:24:57.737Z,22.96
2022-11-20T20:27:24.388Z,22.98
2022-11-20T20:29:51.020Z,22.97
2022-11-20T20:32:17.633Z,23.00
2022-11-20T20:34:44.401Z,23.04
2022-11-20T20:37:11.036Z,23.10
2022-11-20T20:39:37.658Z,23.14
2022-11-20T20:42:04.277Z,23.13
2022-11-20T20:44:30.913Z,23.12
2022-11-20T20:46:57.542Z,23.09
2022-11-20T20:49:24.334Z,23.09
2022-11-20T20:51:51.222Z,23.09
2022-11-20T20:54:17.874Z,23.09
2022-11-20T20:56:44.512Z,23.08
2022-11-20T20:59:11.121Z,23.08
2022-11-20T21:01:37.817Z,23.09
2022-11-20T21:04:04.481Z,23.10
2022-11-20T21:06:31.118Z,23.09
2022-11-20T21:08:57.971Z,23.10
2022-11-20T21:11:24.596Z,23.12
2022-11-20T21:13:51.219Z,23.13
2022-11-20T21:16:18.529Z,23.15
2022-11-20T21:18:45.430Z,23.16
2022-11-20T21:21:12.856Z,23.18
2022-11-20T21:23:39.489Z,23.19
2022-11-20T21:26:06.993Z,23.20
2022-11-20T21:28:34.652Z,23.21
2022-11-20T21:31:11.214Z,23.22
2022-11-20T21:33:47.372Z,23.21
2022-11-20T21:36:15.509Z,23.22
2022-11-20T21:38:42.130Z,23.23
2022-11-20T21:41:09.660Z,23.24
2022-11-20T21:43:36.288Z,23.24
2022-11-20T21:46:06.417Z,23.24
2022-11-20T21:48:33.608Z,23.26
2022-11-20T21:51:07.252Z,23.29
2022-11-20T21:53:34.037Z,23.32
2022-11-20T21:56:00.678Z,23.31
2022-11-20T21:58:27.353Z,23.31
2022-11-20T22:00:53.995Z,23.32
2022-11-20T22:03:20.620Z,23.32
2022-11-20T22:05:56.701Z,23.32
2022-11-20T22:08:24.013Z,23.32
2022-11-20T22:11:00.258Z,23.34
2022-11-20T22:13:27.142Z,23.35
2022-11-20T22:16:00.758Z,23.36
2022-11-20T22:18:27.726Z,23.36
2022-11-20T22:20:54.338Z,23.36
2022-11-20T22:23:20.975Z,23.37
2022-11-20T22:25:47.595Z,23.38
2022-11-20T22:28:14.236Z,23.38
2022-11-20T22:30:40.870Z,23.39
2022-11-20T22:33:13.085Z,23.39
2022-11-20T22:35:40.280Z,23.41
2022-11-20T22:38:06.919Z,23.40
2022-11-20T22:40:33.557Z,23.41
2022-11-20T22:43:00.184Z,23.42
2022-11-20T22:45:26.817Z,23.43
2022-11-20T22:47:53.438Z,23.44
2022-11-20T22:50:20.053Z,23.47
2022-11-20T22:52:46.675Z,23.46
2022-11-20T22:55:16.253Z,23.45
2022-11-20T22:57:43.168Z,23.44
2022-11-20T23:00:10.283Z,23.44
2022-11-20T23:02:36.898Z,23.44
2022-11-20T23:05:03.540Z,23.43
2022-11-20T23:07:30.224Z,23.41
2022-11-20T23:09:56.873Z,23.41
2022-11-20T23:12:23.517Z,23.40
2022-11-20T23:14:50.131Z,23.39
2022-11-20T23:17:16.765Z,23.38
2022-11-20T23:19:43.491Z,23.38
2022-11-20T23:22:10.121Z,23.36
2022-11-20T23:24:36.746Z,23.37
2022-11-20T23:27:03.370Z,23.37
2022-11-20T23:29:30.034Z,23.37
2022-11-20T23:31:56.758Z,23.38
2022-11-20T23:34:23.411Z,23.36
2022-11-20T23:36:50.020Z,23.38
2022-11-20T23:39:16.648Z,23.37
2022-11-20T23:41:43.288Z,23.37
2022-11-20T23:44:09.900Z,23.36
2022-11-20T23:46:36.506Z,23.37
2022-11-20T23:49:03.127Z,23.38
2022-11-20T23:51:29.758Z,23.38
2022-11-20T23:53:59.382Z,23.38
2022-11-20T23:56:28.451Z,23.37
2022-11-20T23:58:55.065Z,23.37
